Lanexa, Virginia
Current Conditions -  °F | °C
As of 1:55 PM on Thursday 23 Oct 2014 (Local Time) from KFYJ Reporting Station
Broken Clouds Broken Clouds  
Wind Chill: 69°   Ceiling: 4500
Heat Index: 69°   Visibility: 10mi
Dew Point: 43°   Wind: 12mph
Humidity: 39%   Direction: 300°WNW
Pressure: 29.86"   Gusts: 22mph
Location:  37.4°N, 76.88°W
Report Text: KFYJ 231755Z AUTO 30010G19KT 10SM BKN045 20/06 A2986 RMK AO2 T02040059 10206 20117
Loading
Personal Weather Stations






























Interactive Weather Map
Tropical Storm Tracking
New forecast layout! Learn more

10-Day Weather Forecast

Advertisements
Track Severe Weather on mobile